Time;durP1;ratioP1;P1;durP2;ratioP2;P2;SDS_P1;SDS_P2;PMS_P1;PMS_P2;Temp;Humidity;BMP_temperature;BMP_pressure;BME280_temperature;BME280_humidity;BME280_pressure;Samples;Min_cycle;Max_cycle;Signal;HPM_P1;HPM_P2
2023/10/26 00:00:31;;;;;;;;;0.00;0.00;;;;;23.83;43.01;99475.19;4842817;29;45265;-75
2023/10/26 00:02:57;;;;;;;;;1.00;0.67;;;;;23.88;43.41;99483.28;4843188;29;46105;-74
2023/10/26 00:05:23;;;;;;;;;0.33;0.33;;;;;23.86;43.01;99482.72;4843257;29;45426;-75
2023/10/26 00:07:48;;;;;;;;;2.00;1.00;;;;;23.86;43.35;99477.41;4843159;29;45543;-76
2023/10/26 00:10:14;;;;;;;;;1.67;1.67;;;;;23.85;42.88;99465.97;4841883;29;45463;-76
2023/10/26 00:12:39;;;;;;;;;1.00;1.00;;;;;23.85;43.35;99465.16;4842918;29;46357;-76
2023/10/26 00:15:05;;;;;;;;;1.00;1.00;;;;;23.84;43.06;99459.00;4845434;29;45301;-76
2023/10/26 00:17:31;;;;;;;;;1.00;0.67;;;;;23.79;43.01;99450.09;4846527;29;45393;-76
2023/10/26 00:19:56;;;;;;;;;2.00;1.00;;;;;23.67;42.74;99428.81;4845074;29;45506;-75
2023/10/26 00:22:22;;;;;;;;;3.00;0.00;;;;;23.83;43.19;99445.97;4845977;29;45497;-75
2023/10/26 00:24:47;;;;;;;;;0.67;0.67;;;;;23.82;43.00;99450.47;4846171;29;45526;-75
2023/10/26 00:27:16;;;;;;;;;1.67;1.00;;;;;23.76;43.02;99429.34;4846295;29;45437;-75
2023/10/26 00:29:42;;;;;;;;;1.00;1.00;;;;;23.73;42.99;99433.25;4845887;29;45372;-75
2023/10/26 00:32:08;;;;;;;;;1.00;1.00;;;;;23.72;43.07;99436.94;4846089;29;45397;-76
2023/10/26 00:34:34;;;;;;;;;1.00;1.00;;;;;23.82;43.35;99442.50;4846066;29;45353;-75
2023/10/26 00:36:59;;;;;;;;;0.00;0.00;;;;;23.82;43.08;99433.72;4845043;29;45409;-75
2023/10/26 00:39:25;;;;;;;;;1.33;1.00;;;;;23.52;42.98;99400.84;4846050;29;45530;-75
2023/10/26 00:41:51;;;;;;;;;2.67;0.33;;;;;23.82;42.86;99436.38;4845932;29;46155;-75
2023/10/26 00:44:17;;;;;;;;;1.00;1.00;;;;;23.73;42.76;99435.91;4845619;29;45433;-76
2023/10/26 00:46:43;;;;;;;;;4.67;1.00;;;;;23.58;42.95;99412.41;4845890;29;45474;-76
2023/10/26 00:49:10;;;;;;;;;0.00;0.00;;;;;23.80;42.72;99431.31;4846069;29;45379;-75
2023/10/26 00:51:35;;;;;;;;;0.00;0.00;;;;;23.79;43.04;99419.03;4845843;29;46652;-75
2023/10/26 00:54:02;;;;;;;;;1.00;1.00;;;;;23.81;43.21;99421.50;4845843;29;45348;-76
2023/10/26 00:56:28;;;;;;;;;0.67;0.33;;;;;23.73;42.98;99412.00;4845976;29;45297;-75
2023/10/26 00:58:56;;;;;;;;;0.00;0.00;;;;;23.80;43.11;99417.22;4845437;29;45441;-75
2023/10/26 01:01:23;;;;;;;;;0.67;0.67;;;;;23.78;42.95;99409.47;4845706;29;46239;-76
2023/10/26 01:03:50;;;;;;;;;3.00;2.00;;;;;23.71;42.80;99393.63;4845594;29;45409;-75
2023/10/26 01:06:16;;;;;;;;;0.00;0.00;;;;;23.80;43.02;99418.03;4845687;29;45244;-75
2023/10/26 01:08:41;;;;;;;;;1.00;1.00;;;;;23.81;42.98;99421.50;4845721;29;45498;-75
2023/10/26 01:11:07;;;;;;;;;0.00;0.00;;;;;23.80;43.32;99410.06;4845485;29;45928;-75
2023/10/26 01:13:33;;;;;;;;;0.00;0.00;;;;;23.33;42.88;99326.56;4845444;29;45320;-76
2023/10/26 01:15:59;;;;;;;;;0.00;0.00;;;;;23.55;42.67;99357.91;4845680;29;45317;-76
2023/10/26 01:18:24;;;;;;;;;1.00;1.00;;;;;23.79;43.12;99394.31;4845693;29;45430;-76
2023/10/26 01:20:50;;;;;;;;;0.00;0.00;;;;;23.82;43.04;99404.50;4845416;29;46545;-76
2023/10/26 01:23:15;;;;;;;;;0.00;0.00;;;;;23.64;42.95;99366.38;4844987;29;45442;-75
2023/10/26 01:25:40;;;;;;;;;1.00;1.00;;;;;23.80;43.09;99396.78;4844744;29;45313;-75
2023/10/26 01:28:07;;;;;;;;;2.00;1.00;;;;;23.70;43.30;99380.59;4845262;29;45315;-75
2023/10/26 01:30:34;;;;;;;;;1.33;1.33;;;;;23.69;42.97;99371.00;4845269;29;47210;-75
2023/10/26 01:32:59;;;;;;;;;0.33;0.33;;;;;23.80;42.75;99388.00;4844147;29;45346;-75
2023/10/26 01:35:25;;;;;;;;;1.00;1.00;;;;;23.59;42.76;99355.63;4845436;29;45706;-75
2023/10/26 01:37:50;;;;;;;;;1.00;1.00;;;;;23.79;42.56;99389.03;4845443;29;45634;-75
2023/10/26 01:40:15;;;;;;;;;1.00;0.33;;;;;23.32;42.80;99305.53;4845106;29;47101;-76
2023/10/26 01:42:41;;;;;;;;;3.00;1.00;;;;;23.78;42.76;99374.13;4844887;29;45403;-75
2023/10/26 01:45:07;;;;;;;;;0.67;0.67;;;;;23.78;43.01;99377.59;4845293;29;45288;-75
2023/10/26 01:47:32;;;;;;;;;1.00;1.00;;;;;23.75;42.77;99372.75;4845139;29;45392;-75
2023/10/26 01:49:59;;;;;;;;;0.00;0.00;;;;;23.77;42.96;99381.28;4845122;29;45448;-75
2023/10/26 01:52:24;;;;;;;;;1.00;1.00;;;;;23.77;43.13;99373.31;4844964;29;45396;-75
2023/10/26 01:54:49;;;;;;;;;1.00;1.00;;;;;23.76;42.82;99365.59;4845161;29;45347;-75
2023/10/26 01:57:16;;;;;;;;;0.00;0.00;;;;;23.72;43.32;99360.75;4844747;29;45712;-76
2023/10/26 01:59:41;;;;;;;;;0.67;0.67;;;;;23.63;43.08;99352.28;4844785;29;47400;-76
2023/10/26 02:02:06;;;;;;;;;0.67;0.67;;;;;23.75;42.73;99370.09;4844792;29;45400;-76
2023/10/26 02:04:32;;;;;;;;;0.00;0.00;;;;;23.51;43.05;99324.91;4845078;29;45316;-75
2023/10/26 02:06:57;;;;;;;;;0.00;0.00;;;;;23.72;42.93;99359.91;4844917;29;45405;-75
2023/10/26 02:09:22;;;;;;;;;1.00;0.67;;;;;23.27;42.83;99288.47;4844745;29;45343;-76
2023/10/26 02:11:48;;;;;;;;;0.33;0.33;;;;;23.74;43.25;99358.66;4844391;29;45380;-75
2023/10/26 02:14:13;;;;;;;;;0.67;0.00;;;;;23.62;42.73;99329.44;4844948;29;45306;-75
2023/10/26 02:16:38;;;;;;;;;0.00;0.00;;;;;23.63;42.55;99323.06;4844873;29;45462;-75
2023/10/26 02:19:04;;;;;;;;;0.33;0.33;;;;;23.66;42.97;99321.81;4844484;29;46318;-75
2023/10/26 02:21:29;;;;;;;;;1.00;1.00;;;;;23.70;43.26;99315.03;4844337;29;45439;-75
2023/10/26 02:23:54;;;;;;;;;1.00;1.00;;;;;23.66;42.72;99308.53;4858845;29;45499;-75
2023/10/26 02:26:20;;;;;;;;;1.00;1.00;;;;;23.63;42.88;99303.69;4844358;29;45462;-75
2023/10/26 02:28:45;;;;;;;;;1.00;1.00;;;;;23.49;42.84;99282.66;4844448;29;46227;-76
2023/10/26 02:31:10;;;;;;;;;1.00;1.00;;;;;23.76;43.02;99321.25;4844419;29;45478;-76
2023/10/26 02:33:36;;;;;;;;;1.00;1.00;;;;;23.67;42.98;99298.72;4844321;29;46909;-75
2023/10/26 02:36:01;;;;;;;;;1.00;1.00;;;;;23.63;42.98;99290.41;4844527;29;45613;-76
2023/10/26 02:38:26;;;;;;;;;0.00;0.00;;;;;23.63;42.69;99280.59;4843798;29;46192;-75
2023/10/26 02:40:52;;;;;;;;;1.00;1.00;;;;;23.45;42.77;99251.44;4844012;29;45346;-75
2023/10/26 02:43:19;;;;;;;;;1.33;0.00;;;;;23.67;42.60;99275.66;4844430;29;45457;-76
2023/10/26 02:45:44;;;;;;;;;1.00;1.00;;;;;23.66;42.93;99268.72;4844214;29;45372;-75
2023/10/26 02:48:10;;;;;;;;;2.00;0.00;;;;;23.72;42.71;99272.28;4843999;29;45454;-75
2023/10/26 02:50:36;;;;;;;;;2.00;0.00;;;;;23.74;43.12;99268.38;4844065;29;45393;-75
2023/10/26 02:53:01;;;;;;;;;0.67;0.67;;;;;23.66;43.09;99246.66;4844324;29;45374;-76
2023/10/26 02:55:26;;;;;;;;;1.33;1.33;;;;;23.34;43.08;99195.47;4843848;29;45486;-76
2023/10/26 02:57:52;;;;;;;;;1.00;1.00;;;;;23.40;43.05;99201.72;4843711;29;54212;-76
2023/10/26 03:00:17;;;;;;;;;1.00;1.00;;;;;23.68;42.83;99248.03;4843931;29;45401;-76
2023/10/26 03:02:43;;;;;;;;;0.00;0.00;;;;;23.70;42.62;99248.63;4844206;29;45460;-75
2023/10/26 03:05:08;;;;;;;;;0.00;0.00;;;;;23.67;42.81;99246.44;4844088;29;45219;-75
2023/10/26 03:07:34;;;;;;;;;2.00;0.33;;;;;23.69;42.95;99244.34;4843822;29;46978;-75
2023/10/26 03:09:59;;;;;;;;;1.33;1.33;;;;;23.58;42.84;99221.25;4843515;29;45318;-75
2023/10/26 03:12:25;;;;;;;;;2.00;1.00;;;;;23.65;42.96;99231.78;4843934;29;45220;-75
2023/10/26 03:14:50;;;;;;;;;0.33;0.33;;;;;23.61;42.81;99231.41;4842741;29;45660;-76
2023/10/26 03:17:15;;;;;;;;;0.00;0.00;;;;;23.72;43.17;99251.88;4842406;29;47188;-75
2023/10/26 03:19:42;;;;;;;;;0.00;0.00;;;;;23.62;43.14;99233.84;4843684;29;45287;-75
2023/10/26 03:22:08;;;;;;;;;2.00;0.00;;;;;23.68;42.92;99233.97;4843597;29;45366;-76
2023/10/26 03:24:34;;;;;;;;;2.00;0.00;;;;;23.74;42.84;99243.66;4843174;29;45390;-75
2023/10/26 03:26:59;;;;;;;;;0.33;0.33;;;;;23.45;43.32;99201.03;4843362;29;45384;-76
2023/10/26 03:29:24;;;;;;;;;1.00;1.00;;;;;23.73;42.76;99245.50;4843628;29;45389;-76
2023/10/26 03:31:51;;;;;;;;;0.00;0.00;;;;;23.73;43.48;99242.06;4842518;29;45359;-75
2023/10/26 03:34:16;;;;;;;;;1.00;1.00;;;;;23.68;43.11;99248.03;4843744;29;45470;-76
2023/10/26 03:36:42;;;;;;;;;3.00;2.00;;;;;23.69;42.77;99236.41;4843235;29;47135;-75
2023/10/26 03:39:07;;;;;;;;;0.00;0.00;;;;;23.53;42.95;99208.69;4843101;29;45477;-76
2023/10/26 03:41:32;;;;;;;;;1.00;1.00;;;;;23.63;43.19;99240.78;4843710;29;45450;-75
2023/10/26 03:43:58;;;;;;;;;1.00;1.00;;;;;23.71;43.08;99236.97;4843531;29;45394;-75
2023/10/26 03:46:23;;;;;;;;;2.00;0.00;;;;;23.68;42.95;99234.75;4843356;29;46079;-75
2023/10/26 03:48:50;;;;;;;;;1.00;1.00;;;;;23.72;43.01;99237.78;4842897;29;45370;-76
2023/10/26 03:51:15;;;;;;;;;3.00;1.00;;;;;23.73;42.82;99250.03;4843544;29;45356;-75
2023/10/26 03:53:41;;;;;;;;;0.00;0.00;;;;;23.69;43.18;99247.00;4843098;29;45301;-75
2023/10/26 03:56:06;;;;;;;;;1.00;0.00;;;;;23.65;43.11;99239.75;4841958;29;47068;-76
2023/10/26 03:58:32;;;;;;;;;0.00;0.00;;;;;23.66;42.78;99241.34;4843283;29;45362;-75
2023/10/26 04:00:57;;;;;;;;;0.00;0.00;;;;;23.41;42.75;99213.97;4842115;29;45239;-75
2023/10/26 04:03:23;;;;;;;;;1.00;1.00;;;;;23.72;43.00;99264.34;4843261;29;45241;-75
2023/10/26 04:05:48;;;;;;;;;0.00;0.00;;;;;23.65;42.78;99248.53;4841833;29;46983;-76
2023/10/26 04:08:14;;;;;;;;;0.00;0.00;;;;;23.70;43.01;99246.00;4842708;29;45477;-75
2023/10/26 04:10:41;;;;;;;;;0.00;0.00;;;;;23.73;42.86;99244.72;4843204;29;45415;-75
2023/10/26 04:13:06;;;;;;;;;0.00;0.00;;;;;23.73;43.20;99260.66;4843217;29;45395;-75
2023/10/26 04:15:32;;;;;;;;;1.00;0.00;;;;;23.77;43.14;99255.66;4842913;29;45452;-76
2023/10/26 04:17:57;;;;;;;;;3.00;0.00;;;;;23.66;42.68;99242.16;4843071;29;45406;-75
2023/10/26 04:20:23;;;;;;;;;1.00;1.00;;;;;23.66;43.00;99241.34;4843155;29;45386;-75
2023/10/26 04:22:48;;;;;;;;;0.00;0.00;;;;;23.66;42.81;99233.38;4842443;29;45346;-75
2023/10/26 04:25:14;;;;;;;;;0.00;0.00;;;;;23.74;42.95;99252.44;4842753;29;47249;-76
2023/10/26 04:27:39;;;;;;;;;0.00;0.00;;;;;23.74;43.18;99247.13;4842771;29;45304;-75
2023/10/26 04:30:06;;;;;;;;;1.00;1.00;;;;;23.61;42.69;99234.88;4843026;29;45218;-76
2023/10/26 04:32:31;;;;;;;;;0.00;0.00;;;;;23.74;43.13;99254.28;4842984;29;45388;-75
2023/10/26 04:34:57;;;;;;;;;0.00;0.00;;;;;23.63;43.17;99237.31;4842801;29;45375;-75
2023/10/26 04:37:22;;;;;;;;;1.00;1.00;;;;;23.68;43.17;99242.72;4842640;29;45395;-75
2023/10/26 04:39:47;;;;;;;;;0.00;0.00;;;;;23.53;43.05;99219.28;4842929;29;45319;-75
2023/10/26 04:42:13;;;;;;;;;2.00;0.00;;;;;23.61;43.33;99234.06;4842999;29;45516;-74
2023/10/26 04:44:41;;;;;;;;;0.00;0.00;;;;;23.72;42.91;99243.91;4842630;29;45580;-76
2023/10/26 04:47:07;;;;;;;;;0.00;0.00;;;;;23.57;43.47;99217.00;4842616;29;45612;-76
2023/10/26 04:49:33;;;;;;;;;1.00;0.00;;;;;23.66;42.95;99223.56;4842704;29;45436;-75
2023/10/26 04:51:59;;;;;;;;;0.00;0.00;;;;;23.62;43.08;99220.59;4842530;29;45461;-75
2023/10/26 04:54:24;;;;;;;;;2.33;1.00;;;;;23.57;43.30;99217.00;4841275;29;47621;-76
2023/10/26 04:56:49;;;;;;;;;2.00;0.00;;;;;23.70;43.51;99240.69;4842632;29;45479;-76
2023/10/26 04:59:15;;;;;;;;;0.33;0.33;;;;;23.54;43.02;99212.16;4842709;29;45558;-76
2023/10/26 05:01:40;;;;;;;;;0.00;0.00;;;;;23.71;42.99;99230.84;4844632;29;45481;-76
2023/10/26 05:04:06;;;;;;;;;0.00;0.00;;;;;23.72;43.12;99235.13;4845759;29;46013;-76
2023/10/26 05:06:32;;;;;;;;;0.00;0.00;;;;;23.58;42.99;99215.94;4845433;29;45509;-76
2023/10/26 05:08:58;;;;;;;;;1.00;0.67;;;;;23.68;43.03;99233.97;4845942;29;45335;-75
2023/10/26 05:11:23;;;;;;;;;0.00;0.00;;;;;23.71;43.12;99233.50;4845791;29;45451;-76
2023/10/26 05:13:52;;;;;;;;;0.33;0.33;;;;;23.71;42.85;99244.94;4845558;29;47598;-76
2023/10/26 05:16:17;;;;;;;;;0.00;0.00;;;;;23.71;43.08;99242.28;4845786;29;45393;-75
2023/10/26 05:18:43;;;;;;;;;0.00;0.00;;;;;23.68;43.07;99237.41;4845765;29;45403;-75
2023/10/26 05:21:08;;;;;;;;;0.67;0.67;;;;;23.64;43.44;99223.00;4845067;29;45286;-76
2023/10/26 05:23:33;;;;;;;;;0.00;0.00;;;;;23.68;43.35;99228.66;4845163;29;46607;-75
2023/10/26 05:25:58;;;;;;;;;0.67;0.67;;;;;23.67;43.35;99224.38;4845317;29;46582;-75
2023/10/26 05:28:24;;;;;;;;;0.00;0.00;;;;;23.63;42.90;99218.72;4845420;29;46548;-76
2023/10/26 05:30:49;;;;;;;;;0.33;0.00;;;;;23.36;43.09;99171.38;4845329;29;45350;-75
2023/10/26 05:33:15;;;;;;;;;1.00;1.00;;;;;23.67;43.22;99219.88;4845140;29;45454;-75
2023/10/26 05:35:40;;;;;;;;;0.00;0.00;;;;;23.39;43.63;99174.38;4845098;29;45306;-75
2023/10/26 05:38:06;;;;;;;;;0.00;0.00;;;;;23.69;43.36;99214.34;4845372;29;45447;-75
2023/10/26 05:40:32;;;;;;;;;0.00;0.00;;;;;23.73;43.13;99223.47;4845224;29;45469;-76
2023/10/26 05:42:57;;;;;;;;;1.00;1.00;;;;;23.73;42.66;99223.47;4843766;29;47233;-78
2023/10/26 05:45:22;;;;;;;;;0.00;0.00;;;;;23.73;43.14;99224.25;4845179;29;45318;-79
2023/10/26 05:47:54;;;;;;;;;2.33;0.00;;;;;23.76;43.07;99233.59;4845267;29;45284;-79
2023/10/26 05:50:20;;;;;;;;;1.00;1.00;;;;;23.69;43.32;99214.34;4844753;29;45222;-77
2023/10/26 05:52:46;;;;;;;;;0.67;0.67;;;;;23.79;43.54;99219.88;4842407;29;46120;-77
2023/10/26 05:55:11;;;;;;;;;0.00;0.00;;;;;23.69;43.39;99207.19;4836259;29;45532;-79
2023/10/26 05:57:37;;;;;;;;;0.00;0.00;;;;;23.66;43.56;99196.22;4843191;29;45869;-75
2023/10/26 06:00:09;;;;;;;;;0.00;0.00;;;;;23.66;43.40;99201.53;4844686;29;45272;-77
2023/10/26 06:02:34;;;;;;;;;0.00;0.00;;;;;23.83;43.25;99228.19;4844414;29;46231;-78
2023/10/26 06:05:00;;;;;;;;;0.00;0.00;;;;;23.82;43.70;99222.06;4843347;29;45307;-74
2023/10/26 06:07:25;;;;;;;;;0.33;0.33;;;;;23.75;43.57;99216.06;4844105;29;45296;-75
2023/10/26 06:09:51;;;;;;;;;0.00;0.00;;;;;23.73;43.61;99207.53;4844251;29;45716;-75
2023/10/26 06:12:17;;;;;;;;;0.00;0.00;;;;;23.71;43.61;99197.13;4843878;29;47059;-75
2023/10/26 06:14:42;;;;;;;;;1.33;0.00;;;;;23.74;43.61;99199.34;4844177;29;45279;-77
2023/10/26 06:17:07;;;;;;;;;0.00;0.00;;;;;23.79;43.65;99203.94;4844379;29;45371;-77
2023/10/26 06:19:33;;;;;;;;;0.00;0.00;;;;;23.83;43.55;99226.34;4844131;29;45301;-76
2023/10/26 06:21:59;;;;;;;;;1.00;0.00;;;;;23.78;43.39;99231.56;4839809;29;46670;-83
2023/10/26 06:24:25;;;;;;;;;1.00;1.00;;;;;23.77;43.38;99240.56;4833836;29;46066;-80
2023/10/26 06:26:50;;;;;;;;;4.00;1.00;;;;;23.78;43.40;99254.63;4844843;29;45628;-76
2023/10/26 06:29:15;;;;;;;;;0.00;0.00;;;;;23.78;43.71;99257.28;4844596;29;45371;-76
2023/10/26 06:31:41;;;;;;;;;3.00;1.00;;;;;23.78;43.34;99260.78;4844452;29;45405;-76
2023/10/26 06:34:06;;;;;;;;;1.00;1.00;;;;;23.71;43.65;99260.84;4844139;29;45345;-76
2023/10/26 06:36:31;;;;;;;;;2.00;2.00;;;;;23.46;44.07;99219.38;4844371;29;45310;-76
2023/10/26 06:38:56;;;;;;;;;0.00;0.00;;;;;23.65;43.55;99253.03;4844556;29;45362;-75
2023/10/26 06:41:22;;;;;;;;;3.00;1.67;;;;;23.78;43.61;99275.88;4844346;29;45896;-75
2023/10/26 06:43:47;;;;;;;;;0.33;0.00;;;;;23.80;43.82;99279.94;4844297;29;45394;-76
2023/10/26 06:46:12;;;;;;;;;0.00;0.00;;;;;23.81;43.38;99294.03;4844388;29;45361;-75
2023/10/26 06:48:38;;;;;;;;;1.00;1.00;;;;;23.70;43.62;99274.38;4843786;29;45474;-76
2023/10/26 06:51:04;;;;;;;;;1.00;1.00;;;;;23.81;43.64;99310.75;4844078;29;46152;-75
2023/10/26 06:53:29;;;;;;;;;0.00;0.00;;;;;23.81;43.84;99312.59;4844298;29;45385;-76
2023/10/26 06:55:55;;;;;;;;;0.00;0.00;;;;;23.81;43.71;99317.91;4844230;29;45238;-75
2023/10/26 06:58:20;;;;;;;;;5.00;0.33;;;;;23.81;43.55;99315.25;4844293;29;45365;-75
2023/10/26 07:00:46;;;;;;;;;0.00;0.00;;;;;23.80;43.76;99316.28;4843570;29;46892;-74
2023/10/26 07:03:11;;;;;;;;;0.00;0.00;;;;;23.73;43.60;99298.59;4843971;29;45455;-75
2023/10/26 07:05:37;;;;;;;;;1.33;0.00;;;;;23.78;43.79;99297.94;4844234;29;45257;-76
2023/10/26 07:08:02;;;;;;;;;1.00;0.00;;;;;23.78;43.49;99308.56;4844016;29;45339;-75
2023/10/26 07:10:28;;;;;;;;;0.67;0.67;;;;;23.79;43.51;99304.84;4843763;29;45492;-75
2023/10/26 07:12:54;;;;;;;;;0.33;0.33;;;;;23.72;43.88;99289.03;4843811;29;45390;-76
2023/10/26 07:15:19;;;;;;;;;1.00;1.00;;;;;23.67;43.83;99275.66;4843678;29;45431;-75
2023/10/26 07:17:45;;;;;;;;;0.00;0.00;;;;;23.69;44.02;99286.84;4843872;29;45412;-75
2023/10/26 07:20:12;;;;;;;;;0.00;0.00;;;;;23.71;43.61;99289.25;4843744;29;46932;-76
2023/10/26 07:22:39;;;;;;;;;0.00;0.00;;;;;23.77;43.72;99311.44;4843228;29;45383;-75
2023/10/26 07:25:05;;;;;;;;;0.00;0.00;;;;;23.76;43.56;99310.63;4843054;29;45421;-75
2023/10/26 07:27:31;;;;;;;;;0.00;0.00;;;;;23.75;43.58;99309.03;4843646;29;45228;-75
2023/10/26 07:29:56;;;;;;;;;1.33;0.67;;;;;23.58;43.70;99285.78;4843091;29;47574;-75
2023/10/26 07:32:22;;;;;;;;;0.00;0.00;;;;;23.45;43.69;99260.22;4843592;29;45334;-74
2023/10/26 07:34:47;;;;;;;;;0.67;0.00;;;;;23.71;43.29;99313.16;4842444;29;45281;-75
2023/10/26 07:37:13;;;;;;;;;0.00;0.00;;;;;23.29;43.67;99241.28;4843537;29;45489;-75
2023/10/26 07:39:38;;;;;;;;;0.67;0.00;;;;;23.75;43.35;99316.97;4843218;29;47230;-75
2023/10/26 07:42:04;;;;;;;;;0.00;0.00;;;;;23.79;43.33;99314.66;4843485;29;45320;-75
2023/10/26 07:44:33;;;;;;;;;0.33;0.33;;;;;23.71;43.45;99308.66;4843307;29;45382;-75
2023/10/26 07:46:59;;;;;;;;;2.00;0.00;;;;;23.78;43.61;99316.53;4843555;29;45473;-75
2023/10/26 07:49:24;;;;;;;;;1.00;0.67;;;;;23.69;43.69;99294.00;4843172;29;47047;-75
2023/10/26 07:51:50;;;;;;;;;1.00;0.00;;;;;23.80;43.54;99308.31;4842155;29;45449;-75
2023/10/26 07:54:16;;;;;;;;;1.00;0.67;;;;;23.80;43.70;99322.41;4843466;29;45229;-75
2023/10/26 07:56:41;;;;;;;;;2.00;0.00;;;;;23.76;43.77;99318.59;4843427;29;45520;-75
2023/10/26 07:59:06;;;;;;;;;1.00;1.00;;;;;23.74;43.68;99318.00;4842765;29;45520;-75
2023/10/26 08:01:31;;;;;;;;;1.67;0.00;;;;;23.81;43.36;99334.63;4843199;29;45368;-75
2023/10/26 08:03:57;;;;;;;;;0.33;0.33;;;;;23.82;43.73;99336.28;4841850;29;45336;-75
2023/10/26 08:06:23;;;;;;;;;0.00;0.00;;;;;23.72;43.47;99312.13;4843200;29;45224;-75
2023/10/26 08:08:50;;;;;;;;;2.33;1.00;;;;;23.34;43.46;99255.72;4841838;29;48159;-75
2023/10/26 08:11:15;;;;;;;;;2.00;0.00;;;;;23.70;43.63;99311.56;4843041;29;45465;-75
2023/10/26 08:13:41;;;;;;;;;1.00;0.00;;;;;23.79;43.41;99333.25;4842837;29;45462;-76
2023/10/26 08:16:07;;;;;;;;;1.00;1.00;;;;;23.83;43.70;99342.41;4842006;29;45342;-75
2023/10/26 08:18:33;;;;;;;;;1.00;1.00;;;;;23.71;43.35;99329.09;4841672;29;48267;-75
2023/10/26 08:20:59;;;;;;;;;0.33;0.00;;;;;23.74;43.61;99331.28;4842853;29;45444;-76
2023/10/26 08:23:24;;;;;;;;;2.00;0.00;;;;;23.78;43.24;99331.66;4841362;29;45244;-75
2023/10/26 08:25:50;;;;;;;;;0.00;0.00;;;;;23.83;43.69;99343.22;4842943;29;45540;-75
2023/10/26 08:28:15;;;;;;;;;0.00;0.00;;;;;23.72;43.50;99334.19;4842540;29;45985;-75
2023/10/26 08:30:41;;;;;;;;;1.00;1.00;;;;;23.77;43.62;99353.91;4842916;29;45240;-76
2023/10/26 08:33:07;;;;;;;;;1.00;1.00;;;;;23.84;43.83;99375.88;4842971;29;45314;-76
2023/10/26 08:35:33;;;;;;;;;1.00;0.00;;;;;23.71;43.47;99359.09;4844902;29;45416;-73
2023/10/26 08:37:58;;;;;;;;;0.00;0.00;;;;;23.65;43.62;99344.09;4846092;29;46138;-75
2023/10/26 08:40:24;;;;;;;;;2.00;1.00;;;;;23.84;43.66;99391.81;4845955;29;45441;-75
2023/10/26 08:42:50;;;;;;;;;0.33;0.00;;;;;23.83;43.60;99380.41;4845903;29;45359;-75
2023/10/26 08:45:27;;;;;;;;;1.00;0.00;;;;;23.83;43.65;99372.44;4846050;29;45340;-76
2023/10/26 08:47:53;;;;;;;;;0.67;0.67;;;;;23.77;43.41;99373.31;4845877;29;46628;-75
2023/10/26 08:50:20;;;;;;;;;0.67;0.67;;;;;23.73;43.38;99358.91;4845575;29;45321;-75
2023/10/26 08:52:46;;;;;;;;;1.00;1.00;;;;;23.68;43.59;99354.25;4846022;29;45195;-75
2023/10/26 08:55:12;;;;;;;;;2.00;2.00;;;;;23.78;43.31;99372.31;4844721;29;45330;-75
2023/10/26 08:57:48;;;;;;;;;0.00;0.00;;;;;23.80;43.78;99386.16;4845409;29;45573;-73
2023/10/26 09:00:15;;;;;;;;;1.67;0.00;;;;;23.69;43.75;99368.34;4845685;29;45403;-73
2023/10/26 09:02:40;;;;;;;;;2.00;1.00;;;;;23.82;43.59;99386.72;4845735;29;45385;-73
2023/10/26 09:05:08;;;;;;;;;1.00;0.00;;;;;23.78;43.64;99390.06;4845811;29;45386;-76
2023/10/26 09:07:34;;;;;;;;;0.00;0.00;;;;;23.81;43.61;99408.22;4845601;29;46416;-76
2023/10/26 09:09:59;;;;;;;;;3.00;0.00;;;;;23.72;43.59;99397.09;4845620;29;45236;-75
2023/10/26 09:12:25;;;;;;;;;0.00;0.00;;;;;23.82;43.37;99400.00;4845373;29;45265;-75
2023/10/26 09:14:58;;;;;;;;;0.33;0.33;;;;;23.81;43.59;99392.28;4845686;29;45215;-75
2023/10/26 09:17:30;;;;;;;;;0.67;0.00;;;;;23.81;43.71;99400.25;4845492;29;47339;-75
2023/10/26 09:19:55;;;;;;;;;1.67;0.00;;;;;23.78;43.55;99395.38;4845376;29;45537;-75
2023/10/26 09:22:38;;;;;;;;;1.00;0.00;;;;;23.78;43.62;99404.16;4845339;29;45304;-75
2023/10/26 09:25:10;;;;;;;;;0.00;0.00;;;;;23.78;43.63;99403.34;4845533;29;45375;-75
2023/10/26 09:27:37;;;;;;;;;0.67;0.67;;;;;23.81;43.43;99416.97;4844850;29;46558;-75
2023/10/26 09:30:03;;;;;;;;;1.00;1.00;;;;;23.82;43.47;99415.94;4845207;29;45332;-76
2023/10/26 09:32:33;;;;;;;;;1.00;1.00;;;;;23.83;43.83;99411.44;4845458;29;45357;-75
2023/10/26 09:34:59;;;;;;;;;1.00;0.00;;;;;23.83;43.73;99406.13;4845475;29;45288;-75
2023/10/26 09:37:24;;;;;;;;;0.67;0.67;;;;;23.83;43.90;99414.09;4845136;29;46143;-75
2023/10/26 09:39:51;;;;;;;;;0.00;0.00;;;;;23.76;43.71;99392.94;4845302;29;45339;-75
2023/10/26 09:42:18;;;;;;;;;1.67;1.67;;;;;23.72;43.74;99397.91;4844939;29;45366;-75
2023/10/26 09:44:43;;;;;;;;;0.33;0.33;;;;;23.82;43.70;99412.47;4845196;29;45420;-76
2023/10/26 09:47:09;;;;;;;;;0.00;0.00;;;;;23.75;43.71;99399.31;4843996;29;45328;-75
2023/10/26 09:49:34;;;;;;;;;1.00;1.00;;;;;23.65;43.39;99375.97;4845128;29;45427;-76
2023/10/26 09:52:00;;;;;;;;;1.00;1.00;;;;;23.82;43.43;99393.88;4843994;29;45375;-76
2023/10/26 09:54:29;;;;;;;;;0.00;0.00;;;;;23.82;43.60;99393.88;4845090;29;45345;-75
2023/10/26 09:57:04;;;;;;;;;0.33;0.33;;;;;23.78;43.51;99398.84;4844735;29;46467;-76
2023/10/26 09:59:30;;;;;;;;;0.33;0.33;;;;;23.80;43.76;99409.25;4844803;29;45385;-75
2023/10/26 10:01:55;;;;;;;;;0.00;0.00;;;;;23.80;43.68;99401.28;4844953;29;45344;-76
2023/10/26 10:04:37;;;;;;;;;1.00;0.00;;;;;23.82;43.55;99415.13;4844903;29;45250;-74
2023/10/26 10:07:03;;;;;;;;;1.00;1.00;;;;;23.64;43.70;99382.31;4844725;29;46224;-76
2023/10/26 10:09:29;;;;;;;;;0.33;0.00;;;;;23.70;43.89;99385.91;4842985;29;45440;-76
2023/10/26 10:12:08;;;;;;;;;1.00;0.00;;;;;23.81;43.62;99403.69;4844877;29;45372;-75
2023/10/26 10:14:50;;;;;;;;;1.00;0.33;;;;;23.80;43.70;99399.44;4844625;29;45449;-75
2023/10/26 10:17:19;;;;;;;;;0.00;0.00;;;;;23.80;43.61;99396.78;4844647;29;46298;-75
2023/10/26 10:20:14;;;;;;;;;0.00;0.00;;;;;23.52;43.51;99355.72;4844531;29;45418;-76
2023/10/26 10:22:40;;;;;;;;;0.00;0.00;;;;;23.80;44.17;99393.31;4842113;29;45825;-76
2023/10/26 10:25:10;;;;;;;;;1.00;0.67;;;;;23.81;43.39;99409.00;4844068;29;45406;-75
2023/10/26 10:27:56;;;;;;;;;1.50;1.50;;;;;23.74;43.70;99398.50;4844400;29;47281;-75
2023/10/26 10:30:28;;;;;;;;;2.33;0.00;;;;;23.81;43.78;99414.31;4840640;29;45354;-76
2023/10/26 10:32:56;;;;;;;;;4.00;0.00;;;;;23.81;43.40;99422.28;4844573;29;45397;-75
2023/10/26 10:35:21;;;;;;;;;0.67;0.00;;;;;23.81;43.23;99424.94;4844532;29;45224;-75
2023/10/26 10:38:15;;;;;;;;;2.00;1.00;;;;;23.82;43.84;99420.44;4844269;29;46328;-75
2023/10/26 10:41:01;;;;;;;;;1.00;1.00;;;;;23.71;43.62;99406.09;4844400;29;45324;-75
2023/10/26 10:43:36;;;;;;;;;0.00;0.00;;;;;23.83;43.50;99411.44;4844208;29;45540;-76
2023/10/26 10:46:21;;;;;;;;;0.00;0.00;;;;;23.83;43.42;99414.09;4844433;29;45362;-75
2023/10/26 10:49:06;;;;;;;;;0.33;0.33;;;;;23.72;43.78;99391.78;4843905;29;47267;-75
2023/10/26 10:51:35;;;;;;;;;0.00;0.00;;;;;23.82;43.91;99400.00;4843987;29;45391;-76
2023/10/26 10:54:04;;;;;;;;;0.00;0.00;;;;;23.83;43.42;99387.53;4844082;29;45475;-75
2023/10/26 10:56:39;;;;;;;;;2.00;0.67;;;;;23.69;43.94;99355.88;4844188;29;45387;-75
2023/10/26 10:59:30;;;;;;;;;1.00;1.00;;;;;23.83;43.54;99369.78;4842675;29;47051;-76
2023/10/26 11:02:09;;;;;;;;;1.00;1.00;;;;;23.71;43.69;99339.72;4843948;29;45425;-76
2023/10/26 11:04:34;;;;;;;;;1.00;1.00;;;;;23.65;43.35;99333.47;4844063;29;45463;-76
2023/10/26 11:07:00;;;;;;;;;1.00;1.00;;;;;23.83;43.81;99358.34;4844048;29;45561;-75
2023/10/26 11:09:37;;;;;;;;;0.00;0.00;;;;;23.84;43.45;99359.94;4843622;29;45460;-75
2023/10/26 11:12:10;;;;;;;;;0.67;0.00;;;;;23.84;43.73;99360.75;4843759;29;45250;-75
2023/10/26 11:14:35;;;;;;;;;0.67;0.67;;;;;23.84;43.73;99370.56;4842605;29;45557;-76
2023/10/26 11:17:01;;;;;;;;;0.00;0.00;;;;;23.74;43.80;99348.03;4843878;29;45487;-75
2023/10/26 11:19:26;;;;;;;;;1.67;1.00;;;;;23.70;43.62;99346.06;4842454;29;46248;-75
2023/10/26 11:21:58;;;;;;;;;1.00;0.00;;;;;23.72;43.74;99333.38;4843214;29;45402;-75
2023/10/26 11:24:31;;;;;;;;;1.33;0.00;;;;;23.85;43.87;99357.06;4843937;29;45593;-76
2023/10/26 11:27:09;;;;;;;;;0.00;0.00;;;;;23.83;43.72;99351.19;4843724;29;45426;-75
2023/10/26 11:29:35;;;;;;;;;1.00;0.67;;;;;23.72;43.43;99320.91;4843581;29;46177;-76
2023/10/26 11:32:00;;;;;;;;;0.00;0.00;;;;;23.80;43.79;99322.41;4843662;29;45361;-76